sensor_id;sensor_type;location;lat;lon;timestamp;temperature;humidity
15959;DHT22;8078;47.822;9.402;2023-11-21T00:00:40;5.40;1.00
15959;DHT22;8078;47.822;9.402;2023-11-21T00:03:06;5.40;1.00
15959;DHT22;8078;47.822;9.402;2023-11-21T00:05:32;5.40;1.00
15959;DHT22;8078;47.822;9.402;2023-11-21T00:07:57;5.30;1.00
15959;DHT22;8078;47.822;9.402;2023-11-21T00:10:23;5.20;1.00
15959;DHT22;8078;47.822;9.402;2023-11-21T00:12:49;5.30;1.00
15959;DHT22;8078;47.822;9.402;2023-11-21T00:15:14;5.20;1.00
15959;DHT22;8078;47.822;9.402;2023-11-21T00:17:40;5.20;1.00
15959;DHT22;8078;47.822;9.402;2023-11-21T00:20:07;5.10;1.00
15959;DHT22;8078;47.822;9.402;2023-11-21T00:22:34;5.00;7.90
15959;DHT22;8078;47.822;9.402;2023-11-21T00:25:00;4.90;93.90
15959;DHT22;8078;47.822;9.402;2023-11-21T00:27:25;5.00;37.80
15959;DHT22;8078;47.822;9.402;2023-11-21T00:29:51;4.90;91.70
15959;DHT22;8078;47.822;9.402;2023-11-21T00:32:16;4.90;99.90
15959;DHT22;8078;47.822;9.402;2023-11-21T00:34:42;4.90;99.90
15959;DHT22;8078;47.822;9.402;2023-11-21T00:37:08;4.90;99.90
15959;DHT22;8078;47.822;9.402;2023-11-21T00:39:33;4.90;99.90
15959;DHT22;8078;47.822;9.402;2023-11-21T00:42:00;4.90;99.90
15959;DHT22;8078;47.822;9.402;2023-11-21T00:44:26;4.90;99.90
15959;DHT22;8078;47.822;9.402;2023-11-21T00:46:52;4.90;96.70
15959;DHT22;8078;47.822;9.402;2023-11-21T00:49:17;5.00;56.80
15959;DHT22;8078;47.822;9.402;2023-11-21T00:51:43;5.00;58.10
15959;DHT22;8078;47.822;9.402;2023-11-21T00:54:08;5.00;54.40
15959;DHT22;8078;47.822;9.402;2023-11-21T00:56:34;5.00;15.70
15959;DHT22;8078;47.822;9.402;2023-11-21T00:58:59;5.00;35.60
15959;DHT22;8078;47.822;9.402;2023-11-21T01:01:25;4.90;60.50
15959;DHT22;8078;47.822;9.402;2023-11-21T01:03:50;4.90;99.70
15959;DHT22;8078;47.822;9.402;2023-11-21T01:06:16;4.80;99.90
15959;DHT22;8078;47.822;9.402;2023-11-21T01:08:43;4.80;99.90
15959;DHT22;8078;47.822;9.402;2023-11-21T01:11:09;4.80;99.90
15959;DHT22;8078;47.822;9.402;2023-11-21T01:13:38;4.80;99.90
15959;DHT22;8078;47.822;9.402;2023-11-21T01:16:05;4.70;99.90
15959;DHT22;8078;47.822;9.402;2023-11-21T01:18:31;4.80;99.90
15959;DHT22;8078;47.822;9.402;2023-11-21T01:20:57;4.70;99.90
15959;DHT22;8078;47.822;9.402;2023-11-21T01:23:23;4.80;99.90
15959;DHT22;8078;47.822;9.402;2023-11-21T01:25:48;4.80;99.90
15959;DHT22;8078;47.822;9.402;2023-11-21T01:28:14;4.70;99.90
15959;DHT22;8078;47.822;9.402;2023-11-21T01:30:39;4.80;99.90
15959;DHT22;8078;47.822;9.402;2023-11-21T01:33:05;4.80;99.90
15959;DHT22;8078;47.822;9.402;2023-11-21T01:35:30;4.80;99.90
15959;DHT22;8078;47.822;9.402;2023-11-21T01:37:56;4.90;99.90
15959;DHT22;8078;47.822;9.402;2023-11-21T01:40:22;4.90;99.90
15959;DHT22;8078;47.822;9.402;2023-11-21T01:42:47;4.90;99.90
15959;DHT22;8078;47.822;9.402;2023-11-21T01:45:14;4.90;99.90
15959;DHT22;8078;47.822;9.402;2023-11-21T01:47:41;4.90;99.90
15959;DHT22;8078;47.822;9.402;2023-11-21T01:50:08;4.90;99.90
15959;DHT22;8078;47.822;9.402;2023-11-21T01:52:37;5.00;99.90
15959;DHT22;8078;47.822;9.402;2023-11-21T01:55:05;4.90;99.90
15959;DHT22;8078;47.822;9.402;2023-11-21T01:57:31;4.80;99.90
15959;DHT22;8078;47.822;9.402;2023-11-21T01:59:58;4.80;99.90
15959;DHT22;8078;47.822;9.402;2023-11-21T02:02:26;4.80;99.90
15959;DHT22;8078;47.822;9.402;2023-11-21T02:04:51;4.80;99.90
15959;DHT22;8078;47.822;9.402;2023-11-21T02:07:17;4.80;99.90
15959;DHT22;8078;47.822;9.402;2023-11-21T02:09:44;4.80;99.90
15959;DHT22;8078;47.822;9.402;2023-11-21T02:12:10;4.80;99.90
15959;DHT22;8078;47.822;9.402;2023-11-21T02:14:36;4.80;99.90
15959;DHT22;8078;47.822;9.402;2023-11-21T02:17:02;4.80;99.90
15959;DHT22;8078;47.822;9.402;2023-11-21T02:19:29;4.80;99.90
15959;DHT22;8078;47.822;9.402;2023-11-21T02:21:57;4.80;99.90
15959;DHT22;8078;47.822;9.402;2023-11-21T02:24:30;4.80;99.90
15959;DHT22;8078;47.822;9.402;2023-11-21T02:26:56;4.80;99.90
15959;DHT22;8078;47.822;9.402;2023-11-21T02:29:22;4.80;99.90
15959;DHT22;8078;47.822;9.402;2023-11-21T02:31:53;4.70;99.90
15959;DHT22;8078;47.822;9.402;2023-11-21T02:34:20;4.80;99.90
15959;DHT22;8078;47.822;9.402;2023-11-21T02:36:46;4.70;99.90
15959;DHT22;8078;47.822;9.402;2023-11-21T02:39:15;4.80;99.90
15959;DHT22;8078;47.822;9.402;2023-11-21T02:41:42;4.80;99.90
15959;DHT22;8078;47.822;9.402;2023-11-21T02:44:07;4.70;99.90
15959;DHT22;8078;47.822;9.402;2023-11-21T02:46:34;4.70;99.90
15959;DHT22;8078;47.822;9.402;2023-11-21T02:49:01;4.80;99.90
15959;DHT22;8078;47.822;9.402;2023-11-21T02:51:26;4.70;99.90
15959;DHT22;8078;47.822;9.402;2023-11-21T02:53:52;4.70;99.90
15959;DHT22;8078;47.822;9.402;2023-11-21T02:56:17;4.60;99.90
15959;DHT22;8078;47.822;9.402;2023-11-21T02:58:43;4.70;99.90
15959;DHT22;8078;47.822;9.402;2023-11-21T03:01:10;4.70;99.90
15959;DHT22;8078;47.822;9.402;2023-11-21T03:03:39;4.60;99.90
15959;DHT22;8078;47.822;9.402;2023-11-21T03:06:06;4.70;99.90
15959;DHT22;8078;47.822;9.402;2023-11-21T03:08:32;4.70;99.90
15959;DHT22;8078;47.822;9.402;2023-11-21T03:10:58;4.70;99.90
15959;DHT22;8078;47.822;9.402;2023-11-21T03:13:23;4.70;99.90
15959;DHT22;8078;47.822;9.402;2023-11-21T03:15:49;4.70;99.90
15959;DHT22;8078;47.822;9.402;2023-11-21T03:18:15;4.70;99.90
15959;DHT22;8078;47.822;9.402;2023-11-21T03:20:40;4.70;99.90
15959;DHT22;8078;47.822;9.402;2023-11-21T03:23:06;4.50;99.90
15959;DHT22;8078;47.822;9.402;2023-11-21T03:25:32;4.40;99.90
15959;DHT22;8078;47.822;9.402;2023-11-21T03:27:57;4.30;99.90
15959;DHT22;8078;47.822;9.402;2023-11-21T03:30:23;4.20;99.90
15959;DHT22;8078;47.822;9.402;2023-11-21T03:32:49;4.20;99.90
15959;DHT22;8078;47.822;9.402;2023-11-21T03:35:14;4.10;99.90
15959;DHT22;8078;47.822;9.402;2023-11-21T03:37:40;4.00;99.90
15959;DHT22;8078;47.822;9.402;2023-11-21T03:40:07;4.10;99.90
15959;DHT22;8078;47.822;9.402;2023-11-21T03:42:38;4.10;99.90
15959;DHT22;8078;47.822;9.402;2023-11-21T03:45:04;4.10;99.90
15959;DHT22;8078;47.822;9.402;2023-11-21T03:47:30;4.10;99.90
15959;DHT22;8078;47.822;9.402;2023-11-21T03:49:55;4.20;99.90
15959;DHT22;8078;47.822;9.402;2023-11-21T03:52:21;4.20;99.90
15959;DHT22;8078;47.822;9.402;2023-11-21T03:54:46;4.20;99.90
15959;DHT22;8078;47.822;9.402;2023-11-21T03:57:12;4.20;99.90
15959;DHT22;8078;47.822;9.402;2023-11-21T03:59:40;4.20;99.90
15959;DHT22;8078;47.822;9.402;2023-11-21T04:02:06;4.20;99.90
15959;DHT22;8078;47.822;9.402;2023-11-21T04:04:33;4.30;99.90
15959;DHT22;8078;47.822;9.402;2023-11-21T04:06:59;4.30;99.90
15959;DHT22;8078;47.822;9.402;2023-11-21T04:09:24;4.30;99.90
15959;DHT22;8078;47.822;9.402;2023-11-21T04:11:51;4.30;99.90
15959;DHT22;8078;47.822;9.402;2023-11-21T04:14:17;4.30;99.90
15959;DHT22;8078;47.822;9.402;2023-11-21T04:16:42;4.30;99.90
15959;DHT22;8078;47.822;9.402;2023-11-21T04:19:08;4.30;99.90
15959;DHT22;8078;47.822;9.402;2023-11-21T04:21:40;4.30;99.90
15959;DHT22;8078;47.822;9.402;2023-11-21T04:24:06;4.30;99.90
15959;DHT22;8078;47.822;9.402;2023-11-21T04:26:32;4.30;99.90
15959;DHT22;8078;47.822;9.402;2023-11-21T04:28:57;4.30;99.90
15959;DHT22;8078;47.822;9.402;2023-11-21T04:31:23;4.30;99.90
15959;DHT22;8078;47.822;9.402;2023-11-21T04:33:48;4.30;99.90
15959;DHT22;8078;47.822;9.402;2023-11-21T04:36:14;4.30;99.90
15959;DHT22;8078;47.822;9.402;2023-11-21T04:38:40;4.30;99.90
15959;DHT22;8078;47.822;9.402;2023-11-21T04:41:06;4.20;99.90
15959;DHT22;8078;47.822;9.402;2023-11-21T04:43:31;4.20;99.90
15959;DHT22;8078;47.822;9.402;2023-11-21T04:45:57;4.20;99.90
15959;DHT22;8078;47.822;9.402;2023-11-21T04:48:23;4.20;99.90
15959;DHT22;8078;47.822;9.402;2023-11-21T04:50:48;4.20;99.90
15959;DHT22;8078;47.822;9.402;2023-11-21T04:53:14;4.20;99.90
15959;DHT22;8078;47.822;9.402;2023-11-21T04:55:40;4.20;99.90
15959;DHT22;8078;47.822;9.402;2023-11-21T04:58:07;4.20;99.90
15959;DHT22;8078;47.822;9.402;2023-11-21T05:00:34;4.20;99.90
15959;DHT22;8078;47.822;9.402;2023-11-21T05:03:02;4.20;99.90
15959;DHT22;8078;47.822;9.402;2023-11-21T05:05:27;4.20;99.90
15959;DHT22;8078;47.822;9.402;2023-11-21T05:07:53;4.20;99.90
15959;DHT22;8078;47.822;9.402;2023-11-21T05:10:19;4.20;99.90
15959;DHT22;8078;47.822;9.402;2023-11-21T05:12:45;4.20;99.90
15959;DHT22;8078;47.822;9.402;2023-11-21T05:15:14;4.20;99.90
15959;DHT22;8078;47.822;9.402;2023-11-21T05:17:40;4.20;99.90
15959;DHT22;8078;47.822;9.402;2023-11-21T05:20:15;4.20;99.90
15959;DHT22;8078;47.822;9.402;2023-11-21T05:22:47;4.10;99.90
15959;DHT22;8078;47.822;9.402;2023-11-21T05:25:16;4.10;99.90
15959;DHT22;8078;47.822;9.402;2023-11-21T05:27:45;4.10;99.90
15959;DHT22;8078;47.822;9.402;2023-11-21T05:30:11;4.20;99.90
15959;DHT22;8078;47.822;9.402;2023-11-21T05:32:38;4.20;99.90
15959;DHT22;8078;47.822;9.402;2023-11-21T05:35:04;4.20;99.90
15959;DHT22;8078;47.822;9.402;2023-11-21T05:37:35;4.20;99.90
15959;DHT22;8078;47.822;9.402;2023-11-21T05:40:01;4.20;99.90
15959;DHT22;8078;47.822;9.402;2023-11-21T05:42:31;4.20;99.90
15959;DHT22;8078;47.822;9.402;2023-11-21T05:44:57;4.20;99.90
15959;DHT22;8078;47.822;9.402;2023-11-21T05:47:24;4.20;99.90
15959;DHT22;8078;47.822;9.402;2023-11-21T05:49:51;4.20;99.90
15959;DHT22;8078;47.822;9.402;2023-11-21T05:52:18;4.20;99.90
15959;DHT22;8078;47.822;9.402;2023-11-21T05:54:43;4.30;99.90
15959;DHT22;8078;47.822;9.402;2023-11-21T05:57:09;4.30;99.90
15959;DHT22;8078;47.822;9.402;2023-11-21T05:59:34;4.30;99.90
15959;DHT22;8078;47.822;9.402;2023-11-21T06:02:00;4.30;99.90
15959;DHT22;8078;47.822;9.402;2023-11-21T06:04:25;4.30;99.90
15959;DHT22;8078;47.822;9.402;2023-11-21T06:06:52;4.30;99.90
15959;DHT22;8078;47.822;9.402;2023-11-21T06:09:18;4.30;99.90
15959;DHT22;8078;47.822;9.402;2023-11-21T06:11:43;4.30;99.90
15959;DHT22;8078;47.822;9.402;2023-11-21T06:14:09;4.30;99.90
15959;DHT22;8078;47.822;9.402;2023-11-21T06:16:36;4.30;99.90
15959;DHT22;8078;47.822;9.402;2023-11-21T06:19:02;4.30;99.90
15959;DHT22;8078;47.822;9.402;2023-11-21T06:21:27;4.30;99.90
15959;DHT22;8078;47.822;9.402;2023-11-21T06:23:53;4.30;99.90
15959;DHT22;8078;47.822;9.402;2023-11-21T06:26:18;4.30;99.90
15959;DHT22;8078;47.822;9.402;2023-11-21T06:28:44;4.30;99.90
15959;DHT22;8078;47.822;9.402;2023-11-21T06:31:10;4.30;99.90
15959;DHT22;8078;47.822;9.402;2023-11-21T06:33:36;4.30;99.90
15959;DHT22;8078;47.822;9.402;2023-11-21T06:36:02;4.30;99.90
15959;DHT22;8078;47.822;9.402;2023-11-21T06:38:31;4.30;99.90
15959;DHT22;8078;47.822;9.402;2023-11-21T06:40:57;4.30;99.90
15959;DHT22;8078;47.822;9.402;2023-11-21T06:43:23;4.30;99.90
15959;DHT22;8078;47.822;9.402;2023-11-21T06:45:49;4.30;99.90
15959;DHT22;8078;47.822;9.402;2023-11-21T06:48:15;4.30;99.90
15959;DHT22;8078;47.822;9.402;2023-11-21T06:50:41;4.40;99.90
15959;DHT22;8078;47.822;9.402;2023-11-21T06:53:07;4.40;99.90
15959;DHT22;8078;47.822;9.402;2023-11-21T06:55:33;4.40;99.90
15959;DHT22;8078;47.822;9.402;2023-11-21T06:58:00;4.40;99.90
15959;DHT22;8078;47.822;9.402;2023-11-21T07:00:25;4.40;99.90
15959;DHT22;8078;47.822;9.402;2023-11-21T07:02:53;4.40;99.90
15959;DHT22;8078;47.822;9.402;2023-11-21T07:05:21;4.40;99.90
15959;DHT22;8078;47.822;9.402;2023-11-21T07:07:47;4.40;99.90
15959;DHT22;8078;47.822;9.402;2023-11-21T07:10:13;4.40;99.90
15959;DHT22;8078;47.822;9.402;2023-11-21T07:12:39;4.40;99.90
15959;DHT22;8078;47.822;9.402;2023-11-21T07:15:06;4.40;99.90
15959;DHT22;8078;47.822;9.402;2023-11-21T07:17:34;4.40;99.90
15959;DHT22;8078;47.822;9.402;2023-11-21T07:20:04;4.40;99.90
15959;DHT22;8078;47.822;9.402;2023-11-21T07:22:29;4.40;99.90
15959;DHT22;8078;47.822;9.402;2023-11-21T07:24:55;4.40;99.90
15959;DHT22;8078;47.822;9.402;2023-11-21T07:27:22;4.40;99.90
15959;DHT22;8078;47.822;9.402;2023-11-21T07:29:47;4.40;99.90
15959;DHT22;8078;47.822;9.402;2023-11-21T07:32:14;4.50;99.90
15959;DHT22;8078;47.822;9.402;2023-11-21T07:34:40;4.50;99.90
15959;DHT22;8078;47.822;9.402;2023-11-21T07:37:06;4.50;99.90
15959;DHT22;8078;47.822;9.402;2023-11-21T07:39:32;4.50;99.90
15959;DHT22;8078;47.822;9.402;2023-11-21T07:41:57;4.50;99.90
15959;DHT22;8078;47.822;9.402;2023-11-21T07:44:23;4.50;99.90
15959;DHT22;8078;47.822;9.402;2023-11-21T07:46:49;4.50;99.90
15959;DHT22;8078;47.822;9.402;2023-11-21T07:49:17;4.50;99.90
15959;DHT22;8078;47.822;9.402;2023-11-21T07:51:45;4.50;99.90
15959;DHT22;8078;47.822;9.402;2023-11-21T07:54:11;4.50;99.90
15959;DHT22;8078;47.822;9.402;2023-11-21T07:56:37;4.60;99.90
15959;DHT22;8078;47.822;9.402;2023-11-21T07:59:02;4.60;99.90
15959;DHT22;8078;47.822;9.402;2023-11-21T08:01:28;4.60;99.90
15959;DHT22;8078;47.822;9.402;2023-11-21T08:03:54;4.60;99.90
15959;DHT22;8078;47.822;9.402;2023-11-21T08:06:25;4.60;99.90
15959;DHT22;8078;47.822;9.402;2023-11-21T08:08:51;4.60;99.90
15959;DHT22;8078;47.822;9.402;2023-11-21T08:11:17;4.60;99.90
15959;DHT22;8078;47.822;9.402;2023-11-21T08:13:42;4.60;99.90
15959;DHT22;8078;47.822;9.402;2023-11-21T08:16:08;4.50;99.90
15959;DHT22;8078;47.822;9.402;2023-11-21T08:18:33;4.60;99.90
15959;DHT22;8078;47.822;9.402;2023-11-21T08:20:59;4.60;99.90
15959;DHT22;8078;47.822;9.402;2023-11-21T08:23:26;4.60;99.90
15959;DHT22;8078;47.822;9.402;2023-11-21T08:25:52;4.60;99.90
15959;DHT22;8078;47.822;9.402;2023-11-21T08:28:18;4.60;99.90
15959;DHT22;8078;47.822;9.402;2023-11-21T08:30:44;4.50;99.90
15959;DHT22;8078;47.822;9.402;2023-11-21T08:33:10;4.60;99.90
15959;DHT22;8078;47.822;9.402;2023-11-21T08:35:37;4.50;99.90
15959;DHT22;8078;47.822;9.402;2023-11-21T08:38:03;4.60;99.90
15959;DHT22;8078;47.822;9.402;2023-11-21T08:40:29;4.60;99.90
15959;DHT22;8078;47.822;9.402;2023-11-21T08:42:55;4.60;99.90
15959;DHT22;8078;47.822;9.402;2023-11-21T08:45:21;4.60;99.90
15959;DHT22;8078;47.822;9.402;2023-11-21T08:47:47;4.70;99.90
15959;DHT22;8078;47.822;9.402;2023-11-21T08:50:13;4.70;99.90
15959;DHT22;8078;47.822;9.402;2023-11-21T08:52:40;4.70;99.90
15959;DHT22;8078;47.822;9.402;2023-11-21T08:55:06;4.70;99.90
15959;DHT22;8078;47.822;9.402;2023-11-21T08:57:38;4.80;99.90
15959;DHT22;8078;47.822;9.402;2023-11-21T09:00:05;4.90;99.90
15959;DHT22;8078;47.822;9.402;2023-11-21T09:02:35;4.80;99.90
15959;DHT22;8078;47.822;9.402;2023-11-21T09:05:03;4.80;99.90
15959;DHT22;8078;47.822;9.402;2023-11-21T09:07:29;4.90;99.90
15959;DHT22;8078;47.822;9.402;2023-11-21T09:09:55;4.90;99.90
15959;DHT22;8078;47.822;9.402;2023-11-21T09:12:20;4.80;99.90
15959;DHT22;8078;47.822;9.402;2023-11-21T09:14:47;4.80;99.90
15959;DHT22;8078;47.822;9.402;2023-11-21T09:17:13;4.80;99.90
15959;DHT22;8078;47.822;9.402;2023-11-21T09:19:39;4.90;99.90
15959;DHT22;8078;47.822;9.402;2023-11-21T09:22:05;5.00;99.90
15959;DHT22;8078;47.822;9.402;2023-11-21T09:24:32;4.90;99.90
15959;DHT22;8078;47.822;9.402;2023-11-21T09:26:58;4.90;99.90
15959;DHT22;8078;47.822;9.402;2023-11-21T09:29:25;4.90;99.90
15959;DHT22;8078;47.822;9.402;2023-11-21T09:31:51;5.10;99.90
15959;DHT22;8078;47.822;9.402;2023-11-21T09:34:17;5.10;99.90
15959;DHT22;8078;47.822;9.402;2023-11-21T09:36:46;5.20;99.90
15959;DHT22;8078;47.822;9.402;2023-11-21T09:39:11;5.00;99.90
15959;DHT22;8078;47.822;9.402;2023-11-21T09:41:54;5.10;99.90
15959;DHT22;8078;47.822;9.402;2023-11-21T09:44:35;5.20;99.90
15959;DHT22;8078;47.822;9.402;2023-11-21T09:47:02;5.20;99.90
15959;DHT22;8078;47.822;9.402;2023-11-21T09:49:28;5.20;99.90
15959;DHT22;8078;47.822;9.402;2023-11-21T09:52:01;5.20;99.90
15959;DHT22;8078;47.822;9.402;2023-11-21T09:54:30;5.20;99.90
15959;DHT22;8078;47.822;9.402;2023-11-21T09:57:00;5.30;99.90
15959;DHT22;8078;47.822;9.402;2023-11-21T09:59:30;5.30;99.90
15959;DHT22;8078;47.822;9.402;2023-11-21T10:01:57;5.20;99.90
15959;DHT22;8078;47.822;9.402;2023-11-21T10:04:24;5.30;99.90
15959;DHT22;8078;47.822;9.402;2023-11-21T10:06:50;5.60;99.90
15959;DHT22;8078;47.822;9.402;2023-11-21T10:09:17;5.60;99.90
15959;DHT22;8078;47.822;9.402;2023-11-21T10:11:45;5.70;99.90
15959;DHT22;8078;47.822;9.402;2023-11-21T10:14:11;6.10;99.90
15959;DHT22;8078;47.822;9.402;2023-11-21T10:16:39;6.20;99.90
15959;DHT22;8078;47.822;9.402;2023-11-21T10:19:06;6.40;99.90
15959;DHT22;8078;47.822;9.402;2023-11-21T10:21:35;6.40;99.90
15959;DHT22;8078;47.822;9.402;2023-11-21T10:24:01;6.30;99.90
15959;DHT22;8078;47.822;9.402;2023-11-21T10:26:28;6.00;99.90
15959;DHT22;8078;47.822;9.402;2023-11-21T10:29:01;6.00;99.90
15959;DHT22;8078;47.822;9.402;2023-11-21T10:31:29;5.80;99.90
15959;DHT22;8078;47.822;9.402;2023-11-21T10:34:19;6.00;99.90
15959;DHT22;8078;47.822;9.402;2023-11-21T10:36:44;6.00;99.90
15959;DHT22;8078;47.822;9.402;2023-11-21T10:39:13;5.90;99.90
15959;DHT22;8078;47.822;9.402;2023-11-21T10:41:39;5.90;99.90
15959;DHT22;8078;47.822;9.402;2023-11-21T10:44:05;5.90;99.90
15959;DHT22;8078;47.822;9.402;2023-11-21T10:46:33;5.90;99.90
15959;DHT22;8078;47.822;9.402;2023-11-21T10:48:59;5.80;99.90
15959;DHT22;8078;47.822;9.402;2023-11-21T10:51:25;5.70;99.90
15959;DHT22;8078;47.822;9.402;2023-11-21T10:53:54;5.70;99.90
15959;DHT22;8078;47.822;9.402;2023-11-21T10:56:23;5.80;99.90
15959;DHT22;8078;47.822;9.402;2023-11-21T10:58:49;5.80;99.90
15959;DHT22;8078;47.822;9.402;2023-11-21T11:01:18;5.90;99.90
15959;DHT22;8078;47.822;9.402;2023-11-21T11:03:44;5.90;99.90
15959;DHT22;8078;47.822;9.402;2023-11-21T11:06:10;6.00;99.90
15959;DHT22;8078;47.822;9.402;2023-11-21T11:08:38;6.00;99.90
15959;DHT22;8078;47.822;9.402;2023-11-21T11:11:05;6.00;99.90
15959;DHT22;8078;47.822;9.402;2023-11-21T11:13:31;5.80;99.90
15959;DHT22;8078;47.822;9.402;2023-11-21T11:16:01;5.70;99.90
15959;DHT22;8078;47.822;9.402;2023-11-21T11:18:28;5.80;99.90
15959;DHT22;8078;47.822;9.402;2023-11-21T11:21:01;5.70;99.90
15959;DHT22;8078;47.822;9.402;2023-11-21T11:29:53;5.70;99.90
15959;DHT22;8078;47.822;9.402;2023-11-21T11:32:35;5.70;99.90
15959;DHT22;8078;47.822;9.402;2023-11-21T11:35:11;5.70;99.90
15959;DHT22;8078;47.822;9.402;2023-11-21T11:37:42;5.70;99.90
15959;DHT22;8078;47.822;9.402;2023-11-21T11:40:11;5.70;99.90
15959;DHT22;8078;47.822;9.402;2023-11-21T11:42:36;5.70;99.90
15959;DHT22;8078;47.822;9.402;2023-11-21T11:45:17;5.70;99.90
15959;DHT22;8078;47.822;9.402;2023-11-21T11:47:43;5.70;99.90
15959;DHT22;8078;47.822;9.402;2023-11-21T11:50:11;5.80;99.90
15959;DHT22;8078;47.822;9.402;2023-11-21T11:52:45;6.40;99.90
15959;DHT22;8078;47.822;9.402;2023-11-21T11:55:16;6.70;99.90
15959;DHT22;8078;47.822;9.402;2023-11-21T11:57:46;6.90;87.30
15959;DHT22;8078;47.822;9.402;2023-11-21T12:00:22;7.00;25.50
15959;DHT22;8078;47.822;9.402;2023-11-21T12:03:02;7.00;22.10
15959;DHT22;8078;47.822;9.402;2023-11-21T12:05:34;6.90;19.70
15959;DHT22;8078;47.822;9.402;2023-11-21T12:08:11;7.00;5.40
15959;DHT22;8078;47.822;9.402;2023-11-21T12:10:38;7.00;11.70
15959;DHT22;8078;47.822;9.402;2023-11-21T12:13:07;7.10;15.40
15959;DHT22;8078;47.822;9.402;2023-11-21T12:15:34;7.50;19.40
15959;DHT22;8078;47.822;9.402;2023-11-21T12:18:00;7.40;1.00
15959;DHT22;8078;47.822;9.402;2023-11-21T12:20:27;6.90;1.00
15959;DHT22;8078;47.822;9.402;2023-11-21T12:22:57;6.70;1.00
15959;DHT22;8078;47.822;9.402;2023-11-21T12:25:27;6.60;1.00
15959;DHT22;8078;47.822;9.402;2023-11-21T12:27:55;6.60;1.00
15959;DHT22;8078;47.822;9.402;2023-11-21T12:30:23;6.40;1.00
15959;DHT22;8078;47.822;9.402;2023-11-21T12:32:50;6.40;1.00
15959;DHT22;8078;47.822;9.402;2023-11-21T12:35:17;6.40;6.30
15959;DHT22;8078;47.822;9.402;2023-11-21T12:37:45;6.50;19.40
15959;DHT22;8078;47.822;9.402;2023-11-21T12:40:12;6.50;6.50
15959;DHT22;8078;47.822;9.402;2023-11-21T12:42:47;6.50;7.70
15959;DHT22;8078;47.822;9.402;2023-11-21T12:47:50;7.10;4.90
15959;DHT22;8078;47.822;9.402;2023-11-21T12:50:19;7.40;1.00
15959;DHT22;8078;47.822;9.402;2023-11-21T12:52:47;7.20;1.00
15959;DHT22;8078;47.822;9.402;2023-11-21T12:55:22;7.00;1.00
15959;DHT22;8078;47.822;9.402;2023-11-21T12:57:50;7.20;6.50
15959;DHT22;8078;47.822;9.402;2023-11-21T13:00:18;7.00;1.00
15959;DHT22;8078;47.822;9.402;2023-11-21T13:02:54;6.90;10.00
15959;DHT22;8078;47.822;9.402;2023-11-21T13:05:28;6.90;1.00
15959;DHT22;8078;47.822;9.402;2023-11-21T13:07:59;6.70;1.00
15959;DHT22;8078;47.822;9.402;2023-11-21T13:10:26;6.70;4.90
15959;DHT22;8078;47.822;9.402;2023-11-21T13:12:56;6.80;1.00
15959;DHT22;8078;47.822;9.402;2023-11-21T13:15:24;6.70;1.40
15959;DHT22;8078;47.822;9.402;2023-11-21T13:17:50;6.60;9.80
15959;DHT22;8078;47.822;9.402;2023-11-21T13:20:17;6.40;17.30
15959;DHT22;8078;47.822;9.402;2023-11-21T13:25:15;6.30;44.80
15959;DHT22;8078;47.822;9.402;2023-11-21T13:27:44;6.30;24.00
15959;DHT22;8078;47.822;9.402;2023-11-21T13:30:12;6.30;8.00
15959;DHT22;8078;47.822;9.402;2023-11-21T13:32:43;6.30;1.50
15959;DHT22;8078;47.822;9.402;2023-11-21T13:35:10;6.20;1.70
15959;DHT22;8078;47.822;9.402;2023-11-21T13:37:47;6.10;1.00
15959;DHT22;8078;47.822;9.402;2023-11-21T13:40:15;6.20;1.00
15959;DHT22;8078;47.822;9.402;2023-11-21T13:42:45;6.30;1.00
15959;DHT22;8078;47.822;9.402;2023-11-21T13:45:11;6.50;6.70
15959;DHT22;8078;47.822;9.402;2023-11-21T13:47:38;6.60;11.30
15959;DHT22;8078;47.822;9.402;2023-11-21T13:50:05;6.70;9.80
15959;DHT22;8078;47.822;9.402;2023-11-21T13:52:39;6.70;1.00
15959;DHT22;8078;47.822;9.402;2023-11-21T13:55:05;6.80;1.00
15959;DHT22;8078;47.822;9.402;2023-11-21T13:57:36;6.70;1.00
15959;DHT22;8078;47.822;9.402;2023-11-21T14:00:03;6.50;1.00
15959;DHT22;8078;47.822;9.402;2023-11-21T14:02:36;6.50;1.00
15959;DHT22;8078;47.822;9.402;2023-11-21T14:05:07;6.30;1.00
15959;DHT22;8078;47.822;9.402;2023-11-21T14:07:35;6.20;1.00
15959;DHT22;8078;47.822;9.402;2023-11-21T14:10:05;6.20;1.00
15959;DHT22;8078;47.822;9.402;2023-11-21T14:12:33;6.10;1.00
15959;DHT22;8078;47.822;9.402;2023-11-21T14:15:01;6.10;1.00
15959;DHT22;8078;47.822;9.402;2023-11-21T14:17:30;6.10;1.00
15959;DHT22;8078;47.822;9.402;2023-11-21T14:19:56;6.00;1.00
15959;DHT22;8078;47.822;9.402;2023-11-21T14:22:21;6.00;1.00
15959;DHT22;8078;47.822;9.402;2023-11-21T14:24:47;5.90;1.00
15959;DHT22;8078;47.822;9.402;2023-11-21T14:27:15;5.90;1.00
15959;DHT22;8078;47.822;9.402;2023-11-21T14:29:41;5.90;1.00
15959;DHT22;8078;47.822;9.402;2023-11-21T14:32:09;5.90;1.00
15959;DHT22;8078;47.822;9.402;2023-11-21T14:34:35;6.10;1.00
15959;DHT22;8078;47.822;9.402;2023-11-21T14:37:02;6.30;12.40
15959;DHT22;8078;47.822;9.402;2023-11-21T14:39:30;7.20;99.90
15959;DHT22;8078;47.822;9.402;2023-11-21T14:41:57;7.90;49.20
15959;DHT22;8078;47.822;9.402;2023-11-21T14:44:24;8.10;1.00
15959;DHT22;8078;47.822;9.402;2023-11-21T14:46:53;7.90;1.00
15959;DHT22;8078;47.822;9.402;2023-11-21T14:49:20;7.60;1.00
15959;DHT22;8078;47.822;9.402;2023-11-21T14:51:49;7.30;1.00
15959;DHT22;8078;47.822;9.402;2023-11-21T14:54:29;7.20;1.00
15959;DHT22;8078;47.822;9.402;2023-11-21T14:57:12;7.20;1.00
15959;DHT22;8078;47.822;9.402;2023-11-21T14:59:46;6.80;1.00
15959;DHT22;8078;47.822;9.402;2023-11-21T15:02:14;6.50;1.00
15959;DHT22;8078;47.822;9.402;2023-11-21T15:04:46;6.30;1.00
15959;DHT22;8078;47.822;9.402;2023-11-21T15:07:13;6.10;1.00
15959;DHT22;8078;47.822;9.402;2023-11-21T15:09:39;6.10;1.00
15959;DHT22;8078;47.822;9.402;2023-11-21T15:12:08;6.10;1.00
15959;DHT22;8078;47.822;9.402;2023-11-21T15:14:50;6.00;1.00
15959;DHT22;8078;47.822;9.402;2023-11-21T15:17:21;6.10;1.00
15959;DHT22;8078;47.822;9.402;2023-11-21T15:19:52;6.00;1.00
15959;DHT22;8078;47.822;9.402;2023-11-21T15:22:18;5.90;1.00
15959;DHT22;8078;47.822;9.402;2023-11-21T15:24:44;5.90;1.00
15959;DHT22;8078;47.822;9.402;2023-11-21T15:27:15;6.00;5.60
15959;DHT22;8078;47.822;9.402;2023-11-21T15:29:44;6.00;1.00
15959;DHT22;8078;47.822;9.402;2023-11-21T15:32:10;6.00;1.00
15959;DHT22;8078;47.822;9.402;2023-11-21T15:34:36;6.00;1.00
15959;DHT22;8078;47.822;9.402;2023-11-21T15:37:02;6.00;1.00
15959;DHT22;8078;47.822;9.402;2023-11-21T15:39:29;6.00;1.00
15959;DHT22;8078;47.822;9.402;2023-11-21T15:41:59;5.90;1.00
15959;DHT22;8078;47.822;9.402;2023-11-21T15:44:26;5.70;1.00
15959;DHT22;8078;47.822;9.402;2023-11-21T15:46:55;5.70;1.00
15959;DHT22;8078;47.822;9.402;2023-11-21T15:49:21;5.60;1.00
15959;DHT22;8078;47.822;9.402;2023-11-21T15:51:48;5.50;1.00
15959;DHT22;8078;47.822;9.402;2023-11-21T15:54:25;5.60;1.00
15959;DHT22;8078;47.822;9.402;2023-11-21T15:56:52;5.70;1.00
15959;DHT22;8078;47.822;9.402;2023-11-21T15:59:20;5.80;1.00
15959;DHT22;8078;47.822;9.402;2023-11-21T16:01:47;5.90;1.00
15959;DHT22;8078;47.822;9.402;2023-11-21T16:04:14;5.90;1.00
15959;DHT22;8078;47.822;9.402;2023-11-21T16:06:46;6.00;1.00
15959;DHT22;8078;47.822;9.402;2023-11-21T16:09:13;6.00;1.00
15959;DHT22;8078;47.822;9.402;2023-11-21T16:11:51;6.00;1.00
15959;DHT22;8078;47.822;9.402;2023-11-21T16:14:21;6.10;1.00
15959;DHT22;8078;47.822;9.402;2023-11-21T16:16:51;6.10;1.00